createdAt,value
2018-12-18T00:00:07.385Z,13.90
2018-12-18T00:02:38.106Z,15.17
2018-12-18T00:05:14.178Z,15.97
2018-12-18T00:07:44.469Z,15.53
2018-12-18T00:10:13.796Z,14.67
2018-12-18T00:12:43.575Z,15.13
2018-12-18T00:15:12.428Z,15.70
2018-12-18T00:17:41.165Z,15.40
2018-12-18T00:20:11.351Z,15.76
2018-12-18T00:22:40.846Z,16.72
2018-12-18T00:25:09.591Z,17.37
2018-12-18T00:27:38.377Z,15.47
2018-12-18T00:30:07.159Z,14.33
2018-12-18T00:32:35.941Z,15.03
2018-12-18T00:35:04.965Z,17.20
2018-12-18T00:37:33.731Z,16.97
2018-12-18T00:40:03.737Z,15.57
2018-12-18T00:42:32.498Z,16.10
2018-12-18T00:45:01.563Z,17.20
2018-12-18T00:47:30.351Z,16.97
2018-12-18T00:49:59.109Z,16.00
2018-12-18T00:52:27.915Z,16.97
2018-12-18T00:54:56.649Z,17.65
2018-12-18T00:57:25.383Z,16.12
2018-12-18T00:59:54.135Z,16.33
2018-12-18T01:02:22.916Z,17.05
2018-12-18T01:04:51.700Z,15.72
2018-12-18T01:07:20.561Z,17.65
2018-12-18T01:09:49.310Z,16.50
2018-12-18T01:12:18.175Z,16.57
2018-12-18T01:14:46.962Z,16.12
2018-12-18T01:17:15.758Z,17.15
2018-12-18T01:19:45.145Z,17.27
2018-12-18T01:22:13.834Z,14.68
2018-12-18T01:24:42.598Z,17.10
2018-12-18T01:27:11.999Z,16.20
2018-12-18T01:29:40.743Z,15.80
2018-12-18T01:32:09.401Z,17.93
2018-12-18T01:34:38.469Z,17.47
2018-12-18T01:37:07.163Z,16.80
2018-12-18T01:39:36.341Z,17.85
2018-12-18T01:42:05.170Z,18.77
2018-12-18T01:47:13.982Z,17.07
2018-12-18T01:49:42.809Z,17.13
2018-12-18T01:52:12.283Z,15.60
2018-12-18T01:54:41.029Z,16.23
2018-12-18T01:57:09.733Z,18.03
2018-12-18T01:59:38.430Z,17.30
2018-12-18T02:02:07.163Z,16.50
2018-12-18T02:04:35.867Z,15.97
2018-12-18T02:07:04.642Z,16.80
2018-12-18T02:09:33.959Z,14.77
2018-12-18T02:12:03.991Z,17.87
2018-12-18T02:14:32.732Z,15.93
2018-12-18T02:17:01.481Z,14.33
2018-12-18T02:19:30.935Z,15.45
2018-12-18T02:21:59.759Z,14.67
2018-12-18T02:24:28.426Z,16.25
2018-12-18T02:26:57.165Z,16.55
2018-12-18T02:29:25.946Z,16.40
2018-12-18T02:31:54.705Z,15.57
2018-12-18T02:34:23.437Z,14.50
2018-12-18T02:36:52.140Z,14.43
2018-12-18T02:39:20.875Z,14.40
2018-12-18T02:41:49.592Z,15.45
2018-12-18T02:44:18.278Z,14.57
2018-12-18T02:46:47.011Z,16.35
2018-12-18T02:49:15.742Z,14.80
2018-12-18T02:51:44.494Z,14.07
2018-12-18T02:54:13.350Z,13.90
2018-12-18T02:56:42.652Z,14.53
2018-12-18T02:59:11.353Z,15.30
2018-12-18T03:01:40.123Z,15.40
2018-12-18T03:04:09.088Z,14.80
2018-12-18T03:06:38.669Z,13.90
2018-12-18T03:09:07.467Z,15.13
2018-12-18T03:11:37.920Z,16.57
2018-12-18T03:14:06.691Z,15.78
2018-12-18T03:16:35.478Z,14.20
2018-12-18T03:19:11.023Z,14.00
2018-12-18T03:21:40.024Z,14.23
2018-12-18T03:24:08.818Z,14.97
2018-12-18T03:26:37.502Z,14.77
2018-12-18T03:29:06.373Z,13.53
2018-12-18T03:31:36.631Z,16.13
2018-12-18T03:34:05.338Z,14.83
2018-12-18T03:36:34.057Z,14.57
2018-12-18T03:39:04.094Z,13.83
2018-12-18T03:41:34.848Z,13.70
2018-12-18T03:44:03.650Z,16.77
2018-12-18T03:46:32.325Z,15.43
2018-12-18T03:49:01.891Z,13.28
2018-12-18T03:51:30.631Z,13.57
2018-12-18T03:53:59.305Z,14.43
2018-12-18T03:56:28.096Z,15.47
2018-12-18T03:58:56.907Z,13.30
2018-12-18T04:01:25.643Z,13.75
2018-12-18T04:03:54.398Z,13.18
2018-12-18T04:06:23.292Z,15.72
2018-12-18T04:08:52.018Z,14.50
2018-12-18T04:11:20.818Z,14.73
2018-12-18T04:13:49.579Z,15.73
2018-12-18T04:16:18.326Z,13.33
2018-12-18T04:18:47.051Z,13.80
2018-12-18T04:21:15.785Z,15.13
2018-12-18T04:23:44.610Z,14.80
2018-12-18T04:26:13.323Z,15.00
2018-12-18T04:28:42.304Z,13.07
2018-12-18T04:31:11.006Z,15.40
2018-12-18T04:33:39.782Z,14.37
2018-12-18T04:36:08.586Z,14.77
2018-12-18T04:38:37.305Z,12.05
2018-12-18T04:41:06.058Z,13.30
2018-12-18T04:43:34.813Z,14.30
2018-12-18T04:46:03.738Z,14.30
2018-12-18T04:48:32.437Z,13.50
2018-12-18T04:51:01.705Z,12.93
2018-12-18T04:53:30.456Z,11.73
2018-12-18T04:55:59.145Z,13.25
2018-12-18T04:58:27.899Z,14.83
2018-12-18T05:00:56.784Z,13.73
2018-12-18T05:03:25.480Z,13.83
2018-12-18T05:05:54.185Z,13.28
2018-12-18T05:08:22.912Z,13.20
2018-12-18T05:10:51.706Z,12.17
2018-12-18T05:13:20.664Z,14.47
2018-12-18T05:15:49.505Z,13.05
2018-12-18T05:18:18.196Z,13.78
2018-12-18T05:20:47.005Z,12.30
2018-12-18T05:23:15.725Z,13.97
2018-12-18T05:25:44.516Z,15.70
2018-12-18T05:28:13.677Z,11.55
2018-12-18T05:30:42.454Z,13.33
2018-12-18T05:33:11.288Z,15.33
2018-12-18T05:35:40.058Z,12.37
2018-12-18T05:38:08.834Z,12.77
2018-12-18T05:40:37.593Z,13.68
2018-12-18T05:43:06.341Z,16.27
2018-12-18T05:45:35.101Z,13.90
2018-12-18T05:48:03.812Z,15.17
2018-12-18T05:50:32.562Z,15.45
2018-12-18T05:53:01.933Z,12.55
2018-12-18T05:55:30.625Z,12.70
2018-12-18T05:57:59.501Z,14.78
2018-12-18T06:00:28.327Z,14.78
2018-12-18T06:02:57.023Z,13.10
2018-12-18T06:05:25.685Z,13.87
2018-12-18T06:07:54.637Z,13.25
2018-12-18T06:10:23.405Z,13.80
2018-12-18T06:12:52.123Z,14.83
2018-12-18T06:15:20.895Z,13.30
2018-12-18T06:17:49.947Z,13.35
2018-12-18T06:20:18.806Z,12.10
2018-12-18T06:22:47.492Z,13.13
2018-12-18T06:25:16.695Z,12.00
2018-12-18T06:27:45.494Z,12.97
2018-12-18T06:30:14.349Z,12.73
2018-12-18T06:32:43.977Z,13.58
2018-12-18T06:35:12.700Z,12.43
2018-12-18T06:37:41.504Z,12.87
2018-12-18T06:40:10.310Z,12.50
2018-12-18T06:42:39.196Z,13.00
2018-12-18T06:45:08.094Z,10.95
2018-12-18T06:47:36.794Z,12.80
2018-12-18T06:50:05.586Z,12.33
2018-12-18T06:52:34.477Z,10.90
2018-12-18T06:55:03.713Z,10.30
2018-12-18T06:57:32.501Z,12.67
2018-12-18T07:00:01.758Z,12.47
2018-12-18T07:02:31.513Z,10.87
2018-12-18T07:05:00.234Z,11.20
2018-12-18T07:07:29.813Z,10.03
2018-12-18T07:09:58.526Z,11.03
2018-12-18T07:12:27.471Z,12.10
2018-12-18T07:14:56.131Z,11.37
2018-12-18T07:17:24.872Z,12.93
2018-12-18T07:22:33.501Z,11.40
2018-12-18T07:25:02.214Z,10.40
2018-12-18T07:30:10.833Z,13.37
2018-12-18T07:32:39.565Z,10.27
2018-12-18T07:35:08.349Z,9.45
2018-12-18T07:37:37.258Z,9.83
2018-12-18T07:40:06.397Z,9.30
2018-12-18T07:42:35.066Z,10.47
2018-12-18T07:45:04.114Z,10.03
2018-12-18T07:47:32.830Z,9.40
2018-12-18T07:50:01.971Z,10.20
2018-12-18T07:52:30.763Z,10.67
2018-12-18T07:54:59.571Z,11.22
2018-12-18T07:57:28.432Z,9.78
2018-12-18T07:59:57.174Z,9.98
2018-12-18T08:02:25.976Z,11.40
2018-12-18T08:04:54.782Z,11.20
2018-12-18T08:07:23.531Z,10.30
2018-12-18T08:09:58.823Z,10.08
2018-12-18T08:12:27.670Z,10.30
2018-12-18T08:14:56.354Z,11.33
2018-12-18T08:17:25.121Z,10.93
2018-12-18T08:19:53.886Z,10.23
2018-12-18T08:22:22.657Z,8.85
2018-12-18T08:24:51.350Z,9.55
2018-12-18T08:27:20.262Z,9.40
2018-12-18T08:29:49.016Z,9.80
2018-12-18T08:32:18.044Z,10.03
2018-12-18T08:34:46.802Z,10.13
2018-12-18T08:37:15.545Z,10.03
2018-12-18T08:39:44.341Z,10.37
2018-12-18T08:42:13.629Z,9.80
2018-12-18T08:44:42.337Z,8.40
2018-12-18T08:47:11.194Z,9.97
2018-12-18T08:49:39.924Z,10.50
2018-12-18T08:52:08.732Z,12.30
2018-12-18T08:54:37.505Z,11.63
2018-12-18T08:57:06.758Z,8.73
2018-12-18T08:59:35.502Z,10.30
2018-12-18T09:02:04.406Z,10.05
2018-12-18T09:04:33.194Z,8.93
2018-12-18T09:07:02.476Z,9.63
2018-12-18T09:09:31.312Z,8.43
2018-12-18T09:12:00.868Z,8.58
2018-12-18T09:14:30.836Z,9.23
2018-12-18T09:17:03.305Z,8.20
2018-12-18T09:19:32.158Z,7.60
2018-12-18T09:22:01.829Z,8.00
2018-12-18T09:24:30.659Z,7.70
2018-12-18T09:26:59.431Z,8.13
2018-12-18T09:29:28.103Z,8.07
2018-12-18T09:31:56.973Z,7.00
2018-12-18T09:34:25.751Z,7.40
2018-12-18T09:36:54.427Z,6.75
2018-12-18T09:39:27.338Z,7.00
2018-12-18T09:42:02.156Z,7.20
2018-12-18T09:44:31.167Z,8.38
2018-12-18T09:47:00.115Z,6.73
2018-12-18T09:49:29.552Z,7.10
2018-12-18T09:51:58.480Z,8.20
2018-12-18T09:54:27.336Z,7.00
2018-12-18T09:56:58.391Z,7.03
2018-12-18T09:59:27.585Z,6.72
2018-12-18T10:01:56.612Z,6.27
2018-12-18T10:04:25.629Z,7.60
2018-12-18T10:06:54.662Z,6.25
2018-12-18T10:09:23.765Z,6.53
2018-12-18T10:11:52.690Z,7.00
2018-12-18T10:14:21.728Z,7.00
2018-12-18T10:16:51.381Z,7.90
2018-12-18T10:19:20.137Z,7.60
2018-12-18T10:21:48.877Z,8.13
2018-12-18T10:24:17.973Z,6.23
2018-12-18T10:26:46.665Z,6.40
2018-12-18T10:29:15.398Z,6.53
2018-12-18T10:34:26.170Z,6.60
2018-12-18T10:36:54.914Z,6.83
2018-12-18T10:39:23.933Z,6.13
2018-12-18T10:41:52.761Z,6.80
2018-12-18T10:44:21.518Z,5.90
2018-12-18T10:46:50.278Z,5.73
2018-12-18T10:49:18.993Z,6.10
2018-12-18T10:51:47.698Z,7.70
2018-12-18T10:54:16.468Z,5.35
2018-12-18T11:06:48.270Z,5.10
2018-12-18T11:09:17.286Z,5.70
2018-12-18T11:14:26.738Z,5.93
2018-12-18T11:16:55.441Z,5.75
2018-12-18T11:19:24.263Z,4.90
2018-12-18T11:21:53.028Z,6.20
2018-12-18T11:24:22.055Z,5.65
2018-12-18T11:26:50.866Z,5.40
2018-12-18T11:29:19.638Z,5.77
2018-12-18T11:31:48.525Z,6.70
2018-12-18T11:34:17.457Z,6.80
2018-12-18T11:39:30.607Z,5.80
2018-12-18T11:41:59.418Z,4.90
2018-12-18T11:44:28.389Z,4.10
2018-12-18T11:46:57.114Z,5.03
2018-12-18T11:49:25.988Z,3.60
2018-12-18T11:51:54.733Z,5.03
2018-12-18T11:54:23.594Z,5.17
2018-12-18T11:56:52.435Z,4.35
2018-12-18T11:59:21.196Z,5.05
2018-12-18T12:01:49.974Z,4.90
2018-12-18T12:04:18.795Z,5.47
2018-12-18T12:06:48.161Z,5.53
2018-12-18T12:09:17.586Z,4.10
2018-12-18T12:11:46.285Z,5.37
2018-12-18T12:14:15.128Z,4.85
2018-12-18T12:16:43.781Z,5.20
2018-12-18T12:19:12.582Z,5.30
2018-12-18T12:21:41.278Z,3.37
2018-12-18T12:24:10.057Z,5.12
2018-12-18T12:26:40.800Z,3.80
2018-12-18T12:29:09.586Z,4.30
2018-12-18T12:31:38.301Z,4.50
2018-12-18T12:34:07.130Z,4.50
2018-12-18T12:36:35.899Z,3.50
2018-12-18T12:39:07.866Z,3.23
2018-12-18T12:41:36.633Z,2.73
2018-12-18T12:44:05.519Z,3.30
2018-12-18T12:46:34.321Z,3.90
2018-12-18T12:49:10.934Z,3.43
2018-12-18T12:51:39.743Z,2.67
2018-12-18T12:54:08.540Z,4.20
2018-12-18T12:56:37.289Z,4.30
2018-12-18T12:59:06.094Z,3.50
2018-12-18T13:01:34.986Z,4.10
2018-12-18T13:04:03.983Z,3.53
2018-12-18T13:06:36.400Z,4.30
2018-12-18T13:09:06.999Z,4.20
2018-12-18T13:11:37.766Z,4.95
2018-12-18T13:14:06.490Z,4.10
2018-12-18T13:16:35.182Z,4.00
2018-12-18T13:19:04.238Z,3.90
2018-12-18T13:21:32.970Z,3.47
2018-12-18T13:24:02.487Z,4.20
2018-12-18T13:26:31.171Z,3.07
2018-12-18T13:29:00.222Z,3.17
2018-12-18T13:31:29.312Z,2.90
2018-12-18T13:33:59.262Z,3.03
2018-12-18T13:36:28.156Z,3.77
2018-12-18T13:38:56.918Z,4.40
2018-12-18T13:41:25.657Z,3.65
2018-12-18T13:43:54.398Z,3.50
2018-12-18T13:46:23.128Z,3.20
2018-12-18T13:48:51.811Z,3.70
2018-12-18T13:51:20.656Z,3.93
2018-12-18T13:53:49.903Z,3.87
2018-12-18T13:56:18.686Z,3.62
2018-12-18T13:58:47.521Z,2.63
2018-12-18T14:01:16.246Z,3.10
2018-12-18T14:03:45.488Z,4.60
2018-12-18T14:06:14.274Z,3.40
2018-12-18T14:08:43.218Z,3.03
2018-12-18T14:11:13.551Z,4.25
2018-12-18T14:13:44.655Z,3.75
2018-12-18T14:16:13.541Z,3.57
2018-12-18T14:18:42.403Z,3.17
2018-12-18T14:21:12.226Z,3.24
2018-12-18T14:23:40.957Z,2.97
2018-12-18T14:26:09.793Z,4.63
2018-12-18T14:28:38.591Z,3.97
2018-12-18T14:31:07.398Z,3.13
2018-12-18T14:33:36.656Z,3.40
2018-12-18T14:36:06.651Z,4.08
2018-12-18T14:38:35.618Z,3.17
2018-12-18T14:41:04.935Z,5.85
2018-12-18T14:43:34.010Z,3.20
2018-12-18T14:46:04.005Z,3.83
2018-12-18T14:48:33.583Z,5.27
2018-12-18T14:51:03.987Z,2.60
2018-12-18T14:53:32.959Z,2.80
2018-12-18T14:56:03.219Z,2.33
2018-12-18T14:58:32.078Z,2.60
2018-12-18T15:01:01.754Z,2.30
2018-12-18T15:03:31.653Z,2.52
2018-12-18T15:06:01.909Z,2.53
2018-12-18T15:08:31.163Z,2.50
2018-12-18T15:11:00.391Z,2.30
2018-12-18T15:13:31.077Z,2.70
2018-12-18T15:18:40.299Z,2.80
2018-12-18T15:23:59.863Z,2.37
2018-12-18T15:29:11.016Z,2.47
2018-12-18T15:31:39.978Z,2.50
2018-12-18T15:34:08.875Z,2.53
2018-12-18T15:36:38.930Z,2.43
2018-12-18T15:39:07.990Z,2.13
2018-12-18T15:41:38.812Z,2.10
2018-12-18T15:44:07.958Z,2.30
2018-12-18T15:46:36.890Z,3.67
2018-12-18T15:49:05.914Z,2.37
2018-12-18T15:51:35.908Z,2.80
2018-12-18T15:54:04.768Z,3.13
2018-12-18T15:56:39.480Z,2.27
2018-12-18T15:59:09.479Z,2.43
2018-12-18T16:01:38.520Z,1.90
2018-12-18T16:04:08.544Z,2.20
2018-12-18T16:06:37.560Z,2.13
2018-12-18T16:09:08.286Z,1.87
2018-12-18T16:11:38.433Z,2.10
2018-12-18T16:14:07.544Z,2.43
2018-12-18T16:16:36.696Z,1.73
2018-12-18T16:21:46.411Z,2.10
2018-12-18T16:24:15.614Z,2.45
2018-12-18T16:26:45.950Z,2.00
2018-12-18T16:31:54.656Z,2.10
2018-12-18T16:34:24.023Z,3.20
2018-12-18T16:36:53.187Z,2.15
2018-12-18T16:39:22.266Z,2.52
2018-12-18T16:41:51.384Z,2.40
2018-12-18T16:44:20.628Z,2.62
2018-12-18T16:46:49.588Z,2.67
2018-12-18T16:49:18.300Z,2.97
2018-12-18T16:51:48.686Z,2.95
2018-12-18T16:54:17.794Z,3.47
2018-12-18T16:56:46.747Z,3.00
2018-12-18T16:59:15.494Z,3.07
2018-12-18T17:01:44.302Z,2.80
2018-12-18T17:06:52.140Z,3.30
2018-12-18T17:12:00.418Z,3.80
2018-12-18T17:14:29.408Z,3.30
2018-12-18T17:16:58.193Z,3.50
2018-12-18T17:19:26.859Z,4.40
2018-12-18T17:21:55.625Z,4.00
2018-12-18T17:24:24.423Z,4.13
2018-12-18T17:26:53.282Z,2.93
2018-12-18T17:29:22.084Z,3.50
2018-12-18T17:31:51.723Z,4.70
2018-12-18T17:34:20.593Z,4.30
2018-12-18T17:36:49.389Z,3.60
2018-12-18T17:39:18.530Z,4.53
2018-12-18T17:41:49.973Z,4.75
2018-12-18T17:44:18.965Z,3.50
2018-12-18T17:46:47.834Z,6.00
2018-12-18T17:49:16.554Z,3.67
2018-12-18T17:51:45.390Z,5.20
2018-12-18T17:54:14.337Z,5.87
2018-12-18T17:56:43.153Z,4.10
2018-12-18T17:59:11.926Z,4.30
2018-12-18T18:01:40.586Z,4.27
2018-12-18T18:04:09.395Z,3.40
2018-12-18T18:06:38.198Z,3.83
2018-12-18T18:09:08.974Z,3.93
2018-12-18T18:11:37.707Z,4.10
2018-12-18T18:14:07.478Z,4.53
2018-12-18T18:16:36.313Z,4.50
2018-12-18T18:19:05.238Z,5.00
2018-12-18T18:21:34.440Z,4.33
2018-12-18T18:24:04.270Z,5.50
2018-12-18T18:26:33.014Z,4.33
2018-12-18T18:29:03.202Z,4.67
2018-12-18T18:31:32.005Z,5.77
2018-12-18T18:34:00.761Z,4.47
2018-12-18T18:36:30.021Z,7.03
2018-12-18T18:38:58.770Z,5.07
2018-12-18T18:41:27.455Z,6.40
2018-12-18T18:43:56.299Z,4.70
2018-12-18T18:46:25.083Z,4.37
2018-12-18T18:48:53.977Z,5.40
2018-12-18T18:51:22.738Z,5.37
2018-12-18T18:53:51.515Z,5.35
2018-12-18T18:56:20.754Z,5.53
2018-12-18T18:58:49.923Z,4.90
2018-12-18T19:01:18.626Z,6.05
2018-12-18T19:03:47.370Z,4.62
2018-12-18T19:06:16.206Z,4.47
2018-12-18T19:08:45.005Z,5.43
2018-12-18T19:11:44.513Z,4.92
2018-12-18T19:14:13.362Z,6.40
2018-12-18T19:16:42.106Z,5.40
2018-12-18T19:19:10.858Z,4.30
2018-12-18T19:21:39.621Z,5.10
2018-12-18T19:24:08.323Z,4.63
2018-12-18T19:26:37.105Z,5.43
2018-12-18T19:29:05.898Z,4.40
2018-12-18T19:31:34.703Z,5.10
2018-12-18T19:34:03.741Z,4.43
2018-12-18T19:36:32.601Z,4.00
2018-12-18T19:39:01.986Z,4.73
2018-12-18T19:41:32.632Z,4.75
2018-12-18T19:44:01.431Z,4.83
2018-12-18T19:46:30.174Z,4.57
2018-12-18T19:49:00.086Z,5.17
2018-12-18T19:51:29.139Z,5.97
2018-12-18T19:53:57.896Z,4.97
2018-12-18T19:56:26.736Z,5.10
2018-12-18T19:58:55.498Z,4.00
2018-12-18T20:01:24.302Z,4.25
2018-12-18T20:03:53.249Z,4.70
2018-12-18T20:06:21.979Z,4.28
2018-12-18T20:08:51.796Z,4.57
2018-12-18T20:11:20.562Z,4.90
2018-12-18T20:13:49.419Z,4.30
2018-12-18T20:16:18.625Z,4.10
2018-12-18T20:18:47.444Z,5.08
2018-12-18T20:21:18.362Z,3.83
2018-12-18T20:23:47.132Z,4.93
2018-12-18T20:26:15.964Z,4.20
2018-12-18T20:28:45.001Z,4.83
2018-12-18T20:31:13.783Z,4.90
2018-12-18T20:33:42.887Z,4.22
2018-12-18T20:36:13.074Z,6.00
2018-12-18T20:38:41.809Z,4.87
2018-12-18T20:41:10.670Z,4.57
2018-12-18T20:43:39.437Z,4.50
2018-12-18T20:46:08.534Z,4.30
2018-12-18T20:48:37.334Z,4.40
2018-12-18T20:51:06.135Z,5.17
2018-12-18T20:53:36.067Z,4.17
2018-12-18T20:56:05.204Z,4.35
2018-12-18T20:58:34.344Z,4.40
2018-12-18T21:01:04.360Z,4.30
2018-12-18T21:03:33.479Z,4.30
2018-12-18T21:06:05.547Z,4.97
2018-12-18T21:08:34.433Z,5.57
2018-12-18T21:11:04.755Z,6.00
2018-12-18T21:13:34.051Z,5.47
2018-12-18T21:16:03.365Z,4.80
2018-12-18T21:18:33.741Z,4.90
2018-12-18T21:21:02.985Z,4.97
2018-12-18T21:23:32.893Z,6.17
2018-12-18T21:26:02.825Z,4.93
2018-12-18T21:28:32.914Z,4.57
2018-12-18T21:31:01.997Z,5.37
2018-12-18T21:33:31.530Z,5.20
2018-12-18T21:36:02.250Z,4.47
2018-12-18T21:38:31.262Z,4.10
2018-12-18T21:41:00.251Z,5.30
2018-12-18T21:43:29.913Z,4.80
2018-12-18T21:45:58.794Z,5.03
2018-12-18T21:48:27.666Z,4.60
2018-12-18T21:50:56.732Z,4.50
2018-12-18T21:53:27.151Z,4.80
2018-12-18T21:55:56.199Z,4.77
2018-12-18T21:58:25.391Z,4.80
2018-12-18T22:00:54.397Z,4.90
2018-12-18T22:03:23.419Z,5.93
2018-12-18T22:05:52.634Z,5.30
2018-12-18T22:08:22.105Z,5.67
2018-12-18T22:10:50.970Z,4.97
2018-12-18T22:13:19.884Z,4.83
2018-12-18T22:15:48.825Z,5.75
2018-12-18T22:18:17.695Z,4.35
2018-12-18T22:20:46.841Z,4.75
2018-12-18T22:23:15.850Z,4.80
2018-12-18T22:25:44.702Z,4.07
2018-12-18T22:28:13.810Z,5.40
2018-12-18T22:30:42.789Z,4.65
2018-12-18T22:33:11.706Z,4.83
2018-12-18T22:35:40.781Z,4.53
2018-12-18T22:38:09.937Z,5.10
2018-12-18T22:40:38.765Z,4.97
2018-12-18T22:43:07.663Z,5.77
2018-12-18T22:45:37.455Z,5.60
2018-12-18T22:48:06.830Z,5.30
2018-12-18T22:50:35.555Z,5.07
2018-12-18T22:53:04.736Z,5.20
2018-12-18T22:55:33.735Z,6.00
2018-12-18T22:58:02.902Z,5.37
2018-12-18T23:00:37.491Z,5.00
2018-12-18T23:03:08.342Z,5.00
2018-12-18T23:05:37.357Z,5.90
2018-12-18T23:08:06.305Z,5.65
2018-12-18T23:10:35.089Z,6.50
2018-12-18T23:13:04.405Z,6.00
2018-12-18T23:15:33.300Z,7.27
2018-12-18T23:18:02.704Z,4.90
2018-12-18T23:20:31.929Z,5.67
2018-12-18T23:23:00.843Z,5.73
2018-12-18T23:25:29.803Z,6.07
2018-12-18T23:27:58.576Z,6.50
2018-12-18T23:30:27.267Z,6.58
2018-12-18T23:32:56.243Z,5.23
2018-12-18T23:35:25.382Z,5.90
2018-12-18T23:37:54.253Z,5.78
2018-12-18T23:40:23.229Z,4.70
2018-12-18T23:42:52.032Z,5.90
2018-12-18T23:45:20.814Z,4.63
2018-12-18T23:47:49.590Z,6.03
2018-12-18T23:50:18.538Z,4.92
2018-12-18T23:52:47.235Z,5.08
2018-12-18T23:55:15.993Z,5.30
2018-12-18T23:57:44.702Z,4.67
